Архив погоды в Кыштовке

Метеограмма Кыштовка
Среда, 15 Августа
Время местн. Темп Ветер Видим Явления Облачность нижн/средн/верх Атм. давл. Влжн Точка росы ВНГО R Сост. почвы Tg s
Напр Скр Прв ур.ст ур.м изм
01:00 +15.7° Ю 2 - 10 км - переменная облачность 754 764 +0.4 72% +10.7° более 2.5 км - - - -
Вторник, 14 Августа
Время местн. Темп Ветер Видим Явления Облачность нижн/средн/верх Атм. давл. Влжн Точка росы ВНГО R Сост. почвы Tg s
Напр Скр Прв ур.ст ур.м изм
22:00 +18.2° Ю 2 - 10 км - переменная облачность 753 764 -0.2 71% +12.8° более 2.5 км - - - -
19:00 +22° Ю 2 - 10 км - переменная облачность 754 764 -0.6 55% +12.5° более 2.5 км 0 - - -
16:00 +21.7° Ю 4 - 10 км - облачно с прояснениями 754 764 -0.1 53% +11.6° 1 км - - - -
13:00 +18.7° Ю 3 - 10 км - преимущественно облачно 754 765 +0.2 63% +11.5° 1 км - - - -
10:00 +16.5° Ю 2 - 10 км - облачно с прояснениями 754 765 +0.5 68% +10.6° более 2.5 км - - - -
07:00 +10.8° Ю,Ю-В 1 - 10 км - облачно 754 764 +0.7 92% +9.5° 1 км 0 Сухая (без трещин) +10° -
04:00 +10.3° Ю-В 1 - 10 км - облачно 753 764 +0.3 93% +9.2° 1 км - - - -
01:00 +9.7° штиль 0 - 10 км - переменная облачность 753 763 +0.8 92% +8.5° более 2.5 км - - - -
Понедельник, 13 Августа
Время местн. Темп Ветер Видим Явления Облачность нижн/средн/верх Атм. давл. Влжн Точка росы ВНГО R Сост. почвы Tg s
Напр Скр Прв ур.ст ур.м изм
22:00 +15.7° Ю 1 - 10 км - преимущественно облачно 752 762 +0.6 75% +11.3° 1.5 км - - - -
19:00 +19° Ю-З 2 - 10 км - облачно с прояснениями 751 762 +0.5 51% +8.6° 1 км 0 - - -
16:00 +19.6° Ю 2 - 10 км - облачно с прояснениями 751 761 +0.4 47% +8° 1 км - - - -
13:00 +16.5° С 2 - 10 км - переменная облачность 751 761 +0.5 49% +5.9° 1 км - - - -
10:00 +13.9° С-З 3 - 10 км - переменная облачность 750 760 +1.4 61% +6.4° более 2.5 км - - - -
07:00 +10.6° С-З 2 - 10 км - облачно с прояснениями 749 759 +0.9 86% +8.3° 1 км 0 Влажная (без луж) +11° -
04:00 +11.4° С,С-З 3 - 10 км - облачно 748 758 +1.1 84% +8.8° 1 км - - - -
01:00 +11.6° С-З 3 - 10 км - облачно 747 757 +1.1 86% +9.3° 1 км - - - -
Воскресенье, 12 Августа
Время местн. Темп Ветер Видим Явления Облачность нижн/средн/верх Атм. давл. Влжн Точка росы ВНГО R Сост. почвы Tg s
Напр Скр Прв ур.ст ур.м изм
22:00 +12.9° С 4 - 10 км - облачно 745 756 +2.3 81% +9.7° 1 км - - - -
19:00 +14.4° С 5 10 10 км небо без изменений {ливневые осадки} облачно 743 753 +2.3 83% +11.5° 1 км 7 - - -
16:00 +16.5° С,С-В 4 - 10 км ливневый дождь облачно 741 751 +2 77% +12.5° 1 км - - - -
13:00 +16.3° С-В 3 - 10 км ливневый дождь облачно 739 749 +1.6 84% +13.6° 1 км - - - -
10:00 +15.1° С-В 3 - 10 км - облачно 737 747 +0.8 80% +11.7° 1 км - - - -
07:00 +12° В,С-В 1 - 10 км - облачно 736 747 +0.2 92% +10.7° 1 км 0 Сухая (без трещин) +13° -
04:00 +12.3° В 1 - 10 км - облачно 736 747 -0.5 91% +10.8° 1 км - - - -
01:00 +12.8° В 1 - 10 км - облачно 737 747 -0.2 88% +10.8° 1.5 км - - - -
Суббота, 11 Августа
Время местн. Темп Ветер Видим Явления Облачность нижн/средн/верх Атм. давл. Влжн Точка росы ВНГО R Сост. почвы Tg s
Напр Скр Прв ур.ст ур.м изм
22:00 +13.3° Ю,Ю-В 1 - 10 км - облачно с прояснениями 737 747 +0.2 83% +10.4° 1 км - - - -